Time;durP1;ratioP1;P1;durP2;ratioP2;P2;SDS_P1;SDS_P2;PMS_P1;PMS_P2;Temp;Humidity;BMP_temperature;BMP_pressure;BME280_temperature;BME280_humidity;BME280_pressure;Samples;Min_cycle;Max_cycle;Signal;HPM_P1;HPM_P2
2024/02/18 00:00:55;;;;;;;29.60;21.43;;;;;22.10;102098.00;;;;2066623;28;20555;-72
2024/02/18 00:01:55;;;;;;;30.60;21.80;;;;;22.00;102115.00;;;;2061422;28;20330;-72
2024/02/18 00:02:56;;;;;;;29.93;20.47;;;;;22.00;102093.00;;;;2062943;28;20219;-73
2024/02/18 00:03:56;;;;;;;30.20;20.70;;;;;22.10;102101.00;;;;2062454;28;20265;-73
2024/02/18 00:04:58;;;;;;;30.03;21.43;;;;;22.00;102094.00;;;;2052920;28;20261;-73
2024/02/18 00:05:58;;;;;;;32.83;22.75;;;;;22.00;102099.00;;;;2066908;28;20288;-73
2024/02/18 00:06:59;;;;;;;34.83;22.27;;;;;22.00;102102.00;;;;2063245;28;20321;-73
2024/02/18 00:08:00;;;;;;;35.70;20.90;;;;;22.00;102090.00;;;;2063370;28;20238;-72
2024/02/18 00:09:00;;;;;;;29.20;21.57;;;;;22.00;102083.00;;;;2062623;28;20625;-73
2024/02/18 00:10:01;;;;;;;29.00;20.97;;;;;22.00;102091.00;;;;2057211;28;20217;-72
2024/02/18 00:11:02;;;;;;;29.30;20.70;;;;;22.00;102095.00;;;;2066283;28;20562;-72
2024/02/18 00:12:03;;;;;;;30.48;20.45;;;;;22.00;102094.00;;;;2063577;28;20242;-72
2024/02/18 00:13:05;;;;;;;27.90;20.57;;;;;22.00;102096.00;;;;2066483;28;20218;-72
2024/02/18 00:14:05;;;;;;;31.50;21.30;;;;;22.00;102099.00;;;;2063176;28;20450;-72
2024/02/18 00:15:06;;;;;;;29.00;20.20;;;;;22.00;102113.00;;;;2054709;28;20238;-73
2024/02/18 00:16:06;;;;;;;28.77;20.90;;;;;22.00;102100.00;;;;2062476;28;20219;-73
2024/02/18 00:17:07;;;;;;;29.20;19.87;;;;;22.00;102097.00;;;;2067233;28;20648;-73
2024/02/18 00:18:07;;;;;;;26.07;20.37;;;;;22.00;102092.00;;;;2065795;28;20211;-73
2024/02/18 00:19:08;;;;;;;32.43;21.03;;;;;22.00;102093.00;;;;2063726;28;20265;-73
2024/02/18 00:20:11;;;;;;;28.00;19.45;;;;;22.00;102088.00;;;;2036502;28;20239;-73
2024/02/18 00:21:19;;;;;;;28.95;19.90;;;;;22.00;102040.00;;;;2047151;28;20666;-73
2024/02/18 00:22:20;;;;;;;27.70;19.65;;;;;22.00;102089.00;;;;2047737;28;20220;-73
2024/02/18 00:23:20;;;;;;;24.20;18.33;;;;;22.00;102091.00;;;;2054757;28;20204;-72
2024/02/18 00:24:20;;;;;;;27.70;19.07;;;;;22.00;102092.00;;;;2069058;28;20214;-72
2024/02/18 00:25:21;;;;;;;25.60;18.13;;;;;22.00;102088.00;;;;2060665;28;20261;-72
2024/02/18 00:26:21;;;;;;;31.30;19.57;;;;;22.00;102089.00;;;;2063944;28;20298;-72
2024/02/18 00:27:21;;;;;;;26.53;19.53;;;;;22.00;102092.00;;;;2062906;28;20230;-72
2024/02/18 00:28:22;;;;;;;25.80;18.67;;;;;22.00;102093.00;;;;2054530;28;20227;-72
2024/02/18 00:29:22;;;;;;;28.40;19.63;;;;;22.00;102090.00;;;;2061880;28;20285;-72
2024/02/18 00:30:24;;;;;;;26.40;17.87;;;;;22.00;102091.00;;;;2053537;28;20250;-72
2024/02/18 00:31:25;;;;;;;26.80;18.70;;;;;21.90;102084.00;;;;2062485;28;20223;-72
2024/02/18 00:32:25;;;;;;;24.20;16.90;;;;;21.90;102080.00;;;;2063330;28;20673;-72
2024/02/18 00:33:25;;;;;;;24.70;17.30;;;;;22.00;102080.00;;;;2062733;28;20223;-73
2024/02/18 00:34:27;;;;;;;23.60;17.47;;;;;21.90;102090.00;;;;2068590;28;20573;-73
2024/02/18 00:35:27;;;;;;;28.30;18.35;;;;;21.90;102085.00;;;;2053690;28;20294;-73
2024/02/18 00:36:28;;;;;;;24.57;17.40;;;;;21.90;102083.00;;;;2063503;28;20528;-73
2024/02/18 00:37:28;;;;;;;23.53;16.80;;;;;21.90;102087.00;;;;2063107;28;20659;-72
2024/02/18 00:38:29;;;;;;;22.90;16.60;;;;;21.90;102040.00;;;;2058172;28;20230;-73
2024/02/18 00:39:29;;;;;;;22.97;16.27;;;;;21.90;102080.00;;;;2062585;28;20222;-73
2024/02/18 00:40:30;;;;;;;25.37;17.50;;;;;21.90;102082.00;;;;2053410;28;20230;-73
2024/02/18 00:41:31;;;;;;;23.67;16.33;;;;;21.90;102083.00;;;;2062991;28;20226;-73
2024/02/18 00:42:31;;;;;;;23.93;16.47;;;;;21.90;102081.00;;;;2063090;28;20222;-73
2024/02/18 00:43:31;;;;;;;21.43;16.50;;;;;21.90;102076.00;;;;2067187;28;20456;-73
2024/02/18 00:44:32;;;;;;;22.23;16.10;;;;;21.90;102080.00;;;;2063045;28;20230;-73
2024/02/18 00:45:32;;;;;;;23.30;15.90;;;;;21.90;102081.00;;;;2051532;28;20246;-72
2024/02/18 00:46:32;;;;;;;21.60;16.67;;;;;21.90;102081.00;;;;2063224;28;20223;-72
2024/02/18 00:47:33;;;;;;;24.23;16.10;;;;;21.90;102077.00;;;;2062763;28;20235;-72
2024/02/18 00:48:35;;;;;;;20.70;15.27;;;;;21.90;102074.00;;;;2062751;28;20293;-72
2024/02/18 00:49:35;;;;;;;23.00;15.75;;;;;21.90;102079.00;;;;2062824;28;20221;-72
2024/02/18 00:50:35;;;;;;;21.90;14.70;;;;;21.90;102079.00;;;;2056005;28;20215;-72
2024/02/18 00:51:36;;;;;;;23.13;15.80;;;;;21.90;102073.00;;;;2060881;28;20234;-73
2024/02/18 00:52:36;;;;;;;20.43;14.90;;;;;21.90;102073.00;;;;2063912;28;20225;-73
2024/02/18 00:53:36;;;;;;;23.50;15.77;;;;;21.90;102071.00;;;;2064642;28;20211;-73
2024/02/18 00:54:37;;;;;;;20.93;15.17;;;;;21.90;102068.00;;;;2063654;28;20257;-73
2024/02/18 00:55:42;;;;;;;19.87;15.20;;;;;21.90;102067.00;;;;2059371;28;20706;-73
2024/02/18 00:56:43;;;;;;;22.45;15.65;;;;;21.90;102068.00;;;;2071945;28;20217;-73
2024/02/18 00:57:43;;;;;;;21.37;15.57;;;;;21.90;102068.00;;;;2069415;28;20210;-73
2024/02/18 00:58:43;;;;;;;20.80;14.80;;;;;21.90;102063.00;;;;2064086;28;20703;-73
2024/02/18 00:59:44;;;;;;;21.53;14.63;;;;;21.90;102061.00;;;;2060560;28;20800;-73
2024/02/18 01:00:44;;;;;;;19.60;14.10;;;;;21.90;102059.00;;;;2059862;28;20298;-73
2024/02/18 01:01:44;;;;;;;20.93;13.73;;;;;21.90;102059.00;;;;2064439;28;20211;-72
2024/02/18 01:02:45;;;;;;;21.83;14.83;;;;;21.90;102056.00;;;;2068944;28;20223;-72
2024/02/18 01:03:45;;;;;;;19.23;14.23;;;;;21.90;102059.00;;;;2064424;28;20890;-72
2024/02/18 01:04:45;;;;;;;20.30;14.30;;;;;21.80;102056.00;;;;2055172;28;20754;-72
2024/02/18 01:05:46;;;;;;;19.83;14.47;;;;;21.80;102055.00;;;;2064492;28;20286;-73
2024/02/18 01:06:46;;;;;;;19.50;13.63;;;;;21.80;102059.00;;;;2063838;28;20210;-72
2024/02/18 01:07:46;;;;;;;17.67;13.50;;;;;21.80;102051.00;;;;2064037;28;20698;-72
2024/02/18 01:08:48;;;;;;;20.07;14.40;;;;;21.80;102060.00;;;;2064486;28;20717;-72
2024/02/18 01:09:51;;;;;;;21.05;14.35;;;;;21.80;102062.00;;;;2058240;28;20218;-72
2024/02/18 01:10:51;;;;;;;20.67;13.57;;;;;21.80;102063.00;;;;2063686;28;20215;-72
2024/02/18 01:11:53;;;;;;;18.40;13.43;;;;;21.80;102060.00;;;;2063100;28;20222;-72
2024/02/18 01:12:54;;;;;;;18.15;14.00;;;;;21.80;102015.00;;;;2064249;28;20215;-72
2024/02/18 01:13:54;;;;;;;17.17;13.30;;;;;21.80;102049.00;;;;2064561;28;20285;-72
2024/02/18 01:14:55;;;;;;;16.70;11.97;;;;;21.80;102052.00;;;;2059097;28;20203;-72
2024/02/18 01:15:55;;;;;;;18.83;13.30;;;;;21.80;102054.00;;;;2063878;28;20203;-72
2024/02/18 01:16:57;;;;;;;18.40;13.03;;;;;21.80;102053.00;;;;2064256;28;20246;-72
2024/02/18 01:17:57;;;;;;;21.00;14.00;;;;;21.80;102055.00;;;;2063384;28;20227;-72
2024/02/18 01:18:58;;;;;;;19.97;13.00;;;;;21.80;102053.00;;;;2065518;28;20222;-72
2024/02/18 01:19:58;;;;;;;20.13;13.50;;;;;21.80;102049.00;;;;2054762;28;20215;-72
2024/02/18 01:20:58;;;;;;;16.40;11.73;;;;;21.80;102051.00;;;;2063674;28;20461;-72
2024/02/18 01:21:59;;;;;;;19.73;13.20;;;;;21.80;102053.00;;;;2068938;28;20314;-74
2024/02/18 01:22:59;;;;;;;15.87;11.53;;;;;21.80;102048.00;;;;2064401;28;20273;-72
2024/02/18 01:23:59;;;;;;;16.70;12.00;;;;;21.80;102050.00;;;;2062543;28;20230;-72
2024/02/18 01:25:00;;;;;;;18.03;11.43;;;;;21.80;102058.00;;;;2051993;28;20603;-72
2024/02/18 01:26:00;;;;;;;17.50;12.40;;;;;21.80;102048.00;;;;2059745;28;21069;-72
2024/02/18 01:27:00;;;;;;;18.20;12.47;;;;;21.80;102049.00;;;;2064309;28;20614;-73
2024/02/18 01:28:00;;;;;;;17.27;11.60;;;;;21.80;102050.00;;;;2063919;28;20691;-73
2024/02/18 01:29:01;;;;;;;17.63;11.93;;;;;21.80;102045.00;;;;2062230;28;20683;-73
2024/02/18 01:30:01;;;;;;;16.30;11.60;;;;;21.80;102036.00;;;;2054755;28;20694;-73
2024/02/18 01:31:02;;;;;;;16.70;11.50;;;;;21.80;102045.00;;;;2065355;28;20226;-73
2024/02/18 01:32:02;;;;;;;18.30;11.83;;;;;21.80;102039.00;;;;2068620;28;20219;-73
2024/02/18 01:33:03;;;;;;;14.20;10.73;;;;;21.80;102042.00;;;;2062997;28;20313;-73
2024/02/18 01:34:03;;;;;;;21.37;12.50;;;;;21.70;102038.00;;;;2067325;28;20218;-73
2024/02/18 01:35:04;;;;;;;18.77;11.37;;;;;21.80;102038.00;;;;2054730;28;20234;-73
2024/02/18 01:36:04;;;;;;;16.47;12.27;;;;;21.80;102037.00;;;;2064188;28;20261;-73
2024/02/18 01:37:04;;;;;;;16.63;10.83;;;;;21.80;102037.00;;;;2064282;28;20225;-73
2024/02/18 01:38:05;;;;;;;14.73;10.83;;;;;21.80;102036.00;;;;2063611;28;20222;-73
2024/02/18 01:39:05;;;;;;;14.83;11.17;;;;;21.80;102040.00;;;;2064110;28;20226;-73
2024/02/18 01:40:06;;;;;;;15.87;10.77;;;;;21.80;102040.00;;;;2054458;28;20317;-73
2024/02/18 01:41:07;;;;;;;15.43;10.70;;;;;21.80;102041.00;;;;2065510;28;20221;-73
2024/02/18 01:42:07;;;;;;;13.80;9.90;;;;;21.80;102033.00;;;;2063307;28;20461;-73
2024/02/18 01:43:07;;;;;;;14.17;10.30;;;;;21.80;102032.00;;;;2066437;28;20253;-73
2024/02/18 01:44:08;;;;;;;15.23;10.60;;;;;21.80;102025.00;;;;2064288;28;20302;-73
2024/02/18 01:45:09;;;;;;;17.03;10.43;;;;;21.80;102023.00;;;;2042868;28;20688;-73
2024/02/18 01:46:10;;;;;;;15.13;10.27;;;;;21.80;101985.00;;;;2055083;28;20249;-73
2024/02/18 01:47:10;;;;;;;16.50;10.70;;;;;21.80;102033.00;;;;2055231;28;20216;-73
2024/02/18 01:48:10;;;;;;;13.83;9.70;;;;;21.80;102027.00;;;;2061937;28;20219;-72
2024/02/18 01:49:11;;;;;;;13.07;9.40;;;;;21.80;102013.00;;;;2063453;28;20265;-72
2024/02/18 01:50:12;;;;;;;14.23;10.67;;;;;21.80;101967.00;;;;2043715;28;20227;-73
2024/02/18 01:51:12;;;;;;;14.10;10.13;;;;;21.80;102024.00;;;;2048189;28;20282;-73
2024/02/18 01:52:12;;;;;;;14.63;9.93;;;;;21.80;102026.00;;;;2044935;28;20289;-73
2024/02/18 01:53:13;;;;;;;13.87;10.07;;;;;21.70;102020.00;;;;2056709;28;20231;-72
2024/02/18 01:54:13;;;;;;;16.20;10.77;;;;;21.70;102024.00;;;;2063656;28;20226;-72
2024/02/18 01:55:14;;;;;;;15.43;10.70;;;;;21.80;102013.00;;;;2056755;28;21016;-72
2024/02/18 01:56:14;;;;;;;12.87;9.47;;;;;21.70;102007.00;;;;2058180;28;20265;-72
2024/02/18 01:57:15;;;;;;;12.17;8.67;;;;;21.70;102023.00;;;;2054093;28;20223;-73
2024/02/18 01:58:15;;;;;;;16.20;10.77;;;;;21.70;102016.00;;;;2053048;28;20223;-73
2024/02/18 01:59:16;;;;;;;12.07;9.20;;;;;21.70;101964.00;;;;2055195;28;20215;-73
2024/02/18 02:00:17;;;;;;;12.10;9.20;;;;;21.70;102014.00;;;;2043148;28;20282;-73
2024/02/18 02:01:17;;;;;;;12.98;8.93;;;;;21.70;101979.00;;;;2054883;28;20665;-72
2024/02/18 02:02:18;;;;;;;14.40;9.97;;;;;21.70;102019.00;;;;2057584;28;20231;-72
2024/02/18 02:03:19;;;;;;;13.20;9.60;;;;;21.70;102011.00;;;;2056912;28;20247;-72
2024/02/18 02:04:19;;;;;;;16.00;10.63;;;;;21.70;102003.00;;;;2053784;28;20215;-72
2024/02/18 02:05:20;;;;;;;13.93;9.40;;;;;21.70;102007.00;;;;2043908;28;20259;-72
2024/02/18 02:06:20;;;;;;;15.43;9.67;;;;;21.70;101974.00;;;;2055344;28;20695;-72
2024/02/18 02:07:21;;;;;;;12.87;8.87;;;;;21.70;101953.00;;;;2062543;28;20219;-72
2024/02/18 02:08:22;;;;;;;12.50;9.10;;;;;21.70;101978.00;;;;2055131;28;20215;-72
2024/02/18 02:09:23;;;;;;;14.85;9.80;;;;;21.70;101993.00;;;;2063659;28;20209;-72
2024/02/18 02:10:23;;;;;;;11.90;8.63;;;;;21.70;102004.00;;;;2029860;28;20625;-72
2024/02/18 02:11:23;;;;;;;13.77;9.00;;;;;21.70;102006.00;;;;2054858;28;20207;-73
2024/02/18 02:12:24;;;;;;;13.63;9.60;;;;;21.70;102007.00;;;;2055938;28;20230;-73
2024/02/18 02:13:24;;;;;;;13.30;9.23;;;;;21.70;102000.00;;;;2038726;28;20263;-73
2024/02/18 02:14:25;;;;;;;14.87;9.90;;;;;21.70;102005.00;;;;2051006;28;20212;-73
2024/02/18 02:15:25;;;;;;;12.70;8.77;;;;;21.70;102005.00;;;;2054515;28;20293;-72
2024/02/18 02:16:26;;;;;;;12.03;9.07;;;;;21.70;102006.00;;;;2070687;28;20214;-72
2024/02/18 02:17:26;;;;;;;14.33;9.07;;;;;21.70;102007.00;;;;2062971;28;20701;-72
2024/02/18 02:18:27;;;;;;;12.67;8.47;;;;;21.70;102004.00;;;;2062447;28;20583;-73
2024/02/18 02:19:27;;;;;;;12.50;8.37;;;;;21.70;102003.00;;;;2063170;28;20222;-73
2024/02/18 02:20:28;;;;;;;11.23;8.40;;;;;21.70;101999.00;;;;2054110;28;20234;-73
2024/02/18 02:21:28;;;;;;;13.43;9.07;;;;;21.70;101996.00;;;;2062947;28;20242;-73
2024/02/18 02:22:28;;;;;;;11.70;7.90;;;;;21.70;101996.00;;;;2063891;28;20587;-73
2024/02/18 02:23:30;;;;;;;12.07;8.27;;;;;21.70;101990.00;;;;2063294;28;20588;-73
2024/02/18 02:24:31;;;;;;;10.00;7.35;;;;;21.60;101993.00;;;;2064839;28;20928;-73
2024/02/18 02:25:31;;;;;;;13.13;8.70;;;;;21.70;101992.00;;;;2054441;28;20272;-72
2024/02/18 02:26:34;;;;;;;10.80;8.00;;;;;21.60;101998.00;;;;2061770;28;20214;-72
2024/02/18 02:27:37;;;;;;;13.35;9.27;;;;;21.70;101994.00;;;;2062675;28;20261;-72
2024/02/18 02:28:41;;;;;;;12.13;8.50;;;;;21.60;101998.00;;;;2062301;28;20222;-72
2024/02/18 02:29:42;;;;;;;11.70;7.93;;;;;21.70;101930.00;;;;2055483;28;20780;-72
2024/02/18 02:30:43;;;;;;;10.63;8.23;;;;;21.70;101996.00;;;;2052688;28;20233;-72
2024/02/18 02:31:44;;;;;;;10.13;7.53;;;;;21.60;101932.00;;;;2063010;28;20609;-72
2024/02/18 02:32:44;;;;;;;10.68;7.25;;;;;21.60;101990.00;;;;2038801;28;20216;-72
2024/02/18 02:33:45;;;;;;;11.60;8.20;;;;;21.60;101997.00;;;;2052854;28;20257;-72
2024/02/18 02:34:45;;;;;;;11.33;7.40;;;;;21.70;101990.00;;;;2047428;28;20223;-72
2024/02/18 02:35:46;;;;;;;9.53;7.63;;;;;21.60;101997.00;;;;2046067;28;20239;-72
2024/02/18 02:36:47;;;;;;;11.10;7.43;;;;;21.60;101994.00;;;;2055068;28;20211;-73
2024/02/18 02:37:47;;;;;;;12.70;7.90;;;;;21.70;101981.00;;;;2062633;28;20222;-73
2024/02/18 02:38:47;;;;;;;11.00;6.90;;;;;21.60;101953.00;;;;2054991;28;20222;-73
2024/02/18 02:39:50;;;;;;;10.50;7.60;;;;;21.70;101990.00;;;;2043526;28;20215;-73
2024/02/18 02:40:51;;;;;;;10.10;7.47;;;;;21.60;101985.00;;;;2061365;28;20242;-72
2024/02/18 02:41:51;;;;;;;10.63;7.47;;;;;21.60;101921.00;;;;2048329;28;20223;-72
2024/02/18 02:42:52;;;;;;;10.50;7.47;;;;;21.60;101985.00;;;;2062273;28;20219;-72
2024/02/18 02:43:52;;;;;;;11.17;7.30;;;;;21.60;101979.00;;;;2062239;28;20211;-72
2024/02/18 02:44:52;;;;;;;10.60;7.30;;;;;21.60;101962.00;;;;2052457;28;20223;-72
2024/02/18 02:45:53;;;;;;;10.90;7.47;;;;;21.60;101977.00;;;;2061213;28;20265;-72
2024/02/18 02:46:53;;;;;;;10.20;7.47;;;;;21.60;101970.00;;;;2053375;28;20243;-72
2024/02/18 02:47:53;;;;;;;10.63;7.83;;;;;21.60;101958.00;;;;2057526;28;20226;-72
2024/02/18 02:48:54;;;;;;;11.00;7.10;;;;;21.60;101970.00;;;;2063246;28;20223;-72
2024/02/18 02:49:54;;;;;;;8.50;6.60;;;;;21.60;101973.00;;;;2054908;28;20748;-72
2024/02/18 02:50:54;;;;;;;8.70;6.60;;;;;21.60;101971.00;;;;2070363;28;20725;-72
2024/02/18 02:51:55;;;;;;;9.67;6.63;;;;;21.60;101975.00;;;;2062685;28;20221;-72
2024/02/18 02:52:55;;;;;;;12.43;6.47;;;;;21.60;101972.00;;;;2068316;28;20218;-72
2024/02/18 02:53:56;;;;;;;9.90;6.83;;;;;21.60;101975.00;;;;2062856;28;20221;-72
2024/02/18 02:54:58;;;;;;;8.93;6.68;;;;;21.60;101975.00;;;;2054582;28;20612;-72
2024/02/18 02:56:00;;;;;;;11.38;6.78;;;;;21.60;101964.00;;;;2054740;28;20277;-72
2024/02/18 02:57:00;;;;;;;10.88;7.72;;;;;21.60;101978.00;;;;2044752;28;20708;-72
2024/02/18 02:58:00;;;;;;;10.83;7.80;;;;;21.60;101975.00;;;;2049101;28;20220;-72
2024/02/18 02:59:01;;;;;;;9.03;6.80;;;;;21.60;101985.00;;;;2063120;28;20215;-72
2024/02/18 03:00:08;;;;;;;9.93;6.63;;;;;21.60;101974.00;;;;2059760;28;20260;-72
2024/02/18 03:01:09;;;;;;;9.48;6.45;;;;;21.60;101963.00;;;;2062503;28;20230;-72
2024/02/18 03:02:09;;;;;;;10.80;6.53;;;;;21.60;101974.00;;;;2060029;28;20223;-72
2024/02/18 03:03:09;;;;;;;9.93;6.40;;;;;21.60;101974.00;;;;2059201;28;20215;-72
2024/02/18 03:04:12;;;;;;;10.20;6.67;;;;;21.60;101973.00;;;;2063044;28;20242;-72
2024/02/18 03:05:12;;;;;;;10.15;6.65;;;;;21.40;101964.00;;;;2054418;28;20245;-72
2024/02/18 03:06:13;;;;;;;9.40;6.10;;;;;21.50;101973.00;;;;2054695;28;20268;-72
2024/02/18 03:07:13;;;;;;;10.10;7.10;;;;;21.60;101972.00;;;;2045676;28;20231;-72
2024/02/18 03:08:14;;;;;;;8.30;5.97;;;;;21.60;101979.00;;;;2054854;28;20238;-72
2024/02/18 03:09:14;;;;;;;9.97;6.77;;;;;21.60;101969.00;;;;2065377;28;20222;-72
2024/02/18 03:10:15;;;;;;;9.70;7.00;;;;;21.60;101969.00;;;;2057490;28;20215;-72
2024/02/18 03:11:15;;;;;;;9.53;6.73;;;;;21.60;101977.00;;;;2062867;28;20641;-72
2024/02/18 03:12:15;;;;;;;8.47;6.10;;;;;21.60;101968.00;;;;2067196;28;20235;-72
2024/02/18 03:13:16;;;;;;;9.77;6.43;;;;;21.60;101963.00;;;;2063501;28;20219;-72
2024/02/18 03:14:16;;;;;;;9.33;6.33;;;;;21.60;101968.00;;;;2063539;28;20589;-72
2024/02/18 03:15:16;;;;;;;8.30;6.10;;;;;21.60;101973.00;;;;2053667;28;20211;-72
2024/02/18 03:16:17;;;;;;;8.70;6.30;;;;;21.50;101962.00;;;;2062961;28;20226;-72
2024/02/18 03:17:17;;;;;;;10.30;7.40;;;;;21.60;101966.00;;;;2063291;28;20245;-72
2024/02/18 03:18:17;;;;;;;10.93;7.13;;;;;21.60;101965.00;;;;2062541;28;21790;-72
2024/02/18 03:19:18;;;;;;;9.50;5.97;;;;;21.60;101818.00;;;;2061918;28;20218;-72
2024/02/18 03:20:19;;;;;;;9.07;6.60;;;;;21.60;101958.00;;;;2052811;28;21755;-72
2024/02/18 03:21:21;;;;;;;8.60;6.37;;;;;21.60;101961.00;;;;2065117;28;20251;-72
2024/02/18 03:22:23;;;;;;;8.07;5.60;;;;;21.60;101963.00;;;;2065616;28;20457;-72
2024/02/18 03:23:23;;;;;;;8.60;5.95;;;;;21.50;101957.00;;;;2055842;28;20218;-72
2024/02/18 03:24:24;;;;;;;10.20;6.33;;;;;21.50;101966.00;;;;2064319;28;20270;-72
2024/02/18 03:25:24;;;;;;;8.33;6.07;;;;;21.50;101949.00;;;;2051477;28;20217;-72
2024/02/18 03:26:25;;;;;;;8.23;5.60;;;;;21.50;101950.00;;;;2064147;28;20610;-72
2024/02/18 03:27:26;;;;;;;10.75;6.50;;;;;21.50;101953.00;;;;2063075;28;20589;-72
2024/02/18 03:28:26;;;;;;;8.93;6.47;;;;;21.50;101947.00;;;;2067008;28;20230;-72
2024/02/18 03:29:26;;;;;;;9.40;6.80;;;;;21.50;101952.00;;;;2065739;28;20207;-72
2024/02/18 03:30:27;;;;;;;8.80;5.60;;;;;21.60;101953.00;;;;2057973;28;20225;-72
2024/02/18 03:31:27;;;;;;;7.80;5.97;;;;;21.50;101947.00;;;;2070557;28;20210;-72
2024/02/18 03:32:28;;;;;;;7.43;5.07;;;;;21.50;101951.00;;;;2059889;28;20219;-72
2024/02/18 03:33:28;;;;;;;8.37;5.80;;;;;21.50;101949.00;;;;2065914;28;20238;-72
2024/02/18 03:34:30;;;;;;;7.50;5.50;;;;;21.50;101957.00;;;;2064768;28;20223;-72
2024/02/18 03:35:30;;;;;;;8.23;5.40;;;;;21.50;101947.00;;;;2052153;28;20218;-72
2024/02/18 03:36:31;;;;;;;9.10;6.27;;;;;21.50;101951.00;;;;2063316;28;20286;-72
2024/02/18 03:37:31;;;;;;;8.70;5.80;;;;;21.50;101948.00;;;;2062605;28;20582;-72
2024/02/18 03:38:32;;;;;;;8.50;6.00;;;;;21.50;101888.00;;;;2064307;28;20294;-72
2024/02/18 03:39:32;;;;;;;8.00;5.60;;;;;21.50;101950.00;;;;2060075;28;20262;-72
2024/02/18 03:40:32;;;;;;;8.80;5.43;;;;;21.50;101951.00;;;;2051053;28;20221;-72
2024/02/18 03:41:33;;;;;;;8.13;5.73;;;;;21.50;101945.00;;;;2061157;28;20250;-72
2024/02/18 03:42:33;;;;;;;7.80;5.50;;;;;21.50;101950.00;;;;2063821;28;20216;-72
2024/02/18 03:43:33;;;;;;;8.17;5.33;;;;;21.50;101944.00;;;;2063254;28;20215;-72
2024/02/18 03:44:34;;;;;;;8.87;5.83;;;;;21.30;101913.00;;;;2061530;28;21022;-72
2024/02/18 03:45:35;;;;;;;8.77;6.10;;;;;21.50;101936.00;;;;2058958;28;20210;-72
2024/02/18 03:46:35;;;;;;;9.40;6.00;;;;;21.50;101892.00;;;;2064847;28;20317;-72
2024/02/18 03:47:35;;;;;;;8.10;5.80;;;;;21.50;101936.00;;;;2065800;28;20250;-72
2024/02/18 03:48:36;;;;;;;6.70;5.20;;;;;21.50;101940.00;;;;2064789;28;20223;-72
2024/02/18 03:49:36;;;;;;;7.80;5.67;;;;;21.50;101945.00;;;;2063931;28;20238;-72
2024/02/18 03:50:36;;;;;;;7.30;5.43;;;;;21.50;101931.00;;;;2054986;28;20235;-72
2024/02/18 03:51:37;;;;;;;8.33;5.43;;;;;21.50;101930.00;;;;2063354;28;20276;-73
2024/02/18 03:52:37;;;;;;;7.30;5.43;;;;;21.50;101934.00;;;;2062693;28;20246;-72
2024/02/18 03:53:37;;;;;;;7.57;5.20;;;;;21.50;101930.00;;;;2063188;28;20273;-72
2024/02/18 03:54:37;;;;;;;7.30;5.07;;;;;21.50;101945.00;;;;2062434;28;20251;-72
2024/02/18 03:55:38;;;;;;;7.37;5.13;;;;;21.50;101846.00;;;;2059841;28;20242;-72
2024/02/18 03:56:38;;;;;;;8.60;5.90;;;;;21.50;101933.00;;;;2061954;28;20233;-72
2024/02/18 03:57:39;;;;;;;7.80;5.13;;;;;21.50;101921.00;;;;2063161;28;20222;-72
2024/02/18 03:58:39;;;;;;;7.40;5.63;;;;;21.50;101934.00;;;;2062343;28;20269;-72
2024/02/18 03:59:41;;;;;;;7.33;5.20;;;;;21.50;101925.00;;;;2053727;28;20294;-73
2024/02/18 04:00:45;;;;;;;7.10;4.90;;;;;21.50;101936.00;;;;2052593;28;20226;-72
2024/02/18 04:01:46;;;;;;;7.82;5.65;;;;;21.50;101895.00;;;;2061013;28;20228;-72
2024/02/18 04:02:46;;;;;;;8.03;5.37;;;;;21.50;101935.00;;;;2062955;28;20314;-72
2024/02/18 04:03:46;;;;;;;8.00;5.57;;;;;21.50;101940.00;;;;2063254;28;20245;-72
2024/02/18 04:04:47;;;;;;;7.60;5.40;;;;;21.50;101932.00;;;;2060000;28;20210;-73
2024/02/18 04:05:47;;;;;;;7.60;4.90;;;;;21.50;101933.00;;;;2063496;28;20218;-73
2024/02/18 04:06:48;;;;;;;8.07;4.83;;;;;21.50;101874.00;;;;2073060;28;20232;-73
2024/02/18 04:07:48;;;;;;;7.60;5.07;;;;;21.50;101923.00;;;;2062360;28;20254;-72
2024/02/18 04:08:49;;;;;;;8.17;5.40;;;;;21.50;101929.00;;;;2054857;28;20743;-72
2024/02/18 04:09:50;;;;;;;7.63;5.20;;;;;21.50;101899.00;;;;2053173;28;20219;-72
2024/02/18 04:10:50;;;;;;;7.75;4.97;;;;;21.50;101914.00;;;;2058624;28;20222;-72
2024/02/18 04:11:51;;;;;;;8.03;5.00;;;;;21.40;101913.00;;;;2078313;28;20225;-72
2024/02/18 04:12:51;;;;;;;7.63;5.33;;;;;21.40;101909.00;;;;2071577;28;20219;-72
2024/02/18 04:13:51;;;;;;;7.13;4.90;;;;;21.40;101904.00;;;;2066782;28;20675;-72
2024/02/18 04:14:51;;;;;;;8.03;4.87;;;;;21.50;101902.00;;;;2044590;28;20227;-72
2024/02/18 04:15:52;;;;;;;8.53;5.00;;;;;21.40;101905.00;;;;2057965;28;20237;-72
2024/02/18 04:16:53;;;;;;;9.20;4.50;;;;;21.50;101901.00;;;;2067988;28;20217;-72
2024/02/18 04:17:54;;;;;;;6.65;4.70;;;;;21.40;101902.00;;;;2061391;28;20211;-72
2024/02/18 04:18:55;;;;;;;8.40;5.45;;;;;21.50;101901.00;;;;2067571;28;20245;-72
2024/02/18 04:19:55;;;;;;;6.50;4.60;;;;;21.50;101909.00;;;;2053346;28;20218;-72
2024/02/18 04:20:56;;;;;;;6.80;4.80;;;;;21.40;101897.00;;;;2063815;28;20298;-72
2024/02/18 04:21:56;;;;;;;7.90;5.55;;;;;21.40;101899.00;;;;2062449;28;20219;-72
2024/02/18 04:22:57;;;;;;;8.47;5.40;;;;;21.40;101835.00;;;;2061778;28;20261;-72
2024/02/18 04:23:57;;;;;;;6.70;4.60;;;;;21.40;101895.00;;;;2054356;28;20720;-72
2024/02/18 04:24:58;;;;;;;8.40;5.07;;;;;21.40;101894.00;;;;2044373;28;20216;-72
2024/02/18 04:25:58;;;;;;;7.10;4.77;;;;;21.40;101907.00;;;;2061862;28;20290;-72
2024/02/18 04:27:00;;;;;;;7.03;4.97;;;;;21.40;101881.00;;;;2060389;28;20223;-72
2024/02/18 04:28:00;;;;;;;7.28;5.20;;;;;21.40;101863.00;;;;2069339;28;20253;-72
2024/02/18 04:29:00;;;;;;;7.73;5.50;;;;;21.40;101887.00;;;;2062648;28;20210;-72
2024/02/18 04:30:01;;;;;;;7.00;4.73;;;;;21.40;101889.00;;;;2053909;28;20210;-72
2024/02/18 04:31:01;;;;;;;6.33;4.63;;;;;21.40;101889.00;;;;2070522;28;20210;-72
2024/02/18 04:32:01;;;;;;;6.13;4.30;;;;;21.40;101886.00;;;;2064029;28;20290;-72
2024/02/18 04:33:02;;;;;;;6.97;4.60;;;;;21.40;101887.00;;;;2059971;28;20203;-72
2024/02/18 04:34:03;;;;;;;6.63;4.83;;;;;21.40;101887.00;;;;2063416;28;20226;-72
2024/02/18 04:35:03;;;;;;;6.33;4.20;;;;;21.40;101879.00;;;;2051828;28;20273;-72
2024/02/18 04:36:04;;;;;;;7.80;4.80;;;;;21.40;101888.00;;;;2064681;28;20239;-72
2024/02/18 04:37:04;;;;;;;7.77;4.60;;;;;21.40;101881.00;;;;2064710;28;20641;-72
2024/02/18 04:38:04;;;;;;;6.50;4.03;;;;;21.40;101884.00;;;;2063195;28;20246;-72
2024/02/18 04:39:05;;;;;;;4.97;3.60;;;;;21.40;101886.00;;;;2062597;28;20218;-72
2024/02/18 04:40:06;;;;;;;7.50;5.27;;;;;21.40;101882.00;;;;2061477;28;20227;-72
2024/02/18 04:41:06;;;;;;;6.37;4.33;;;;;21.40;101870.00;;;;2071973;28;20218;-72
2024/02/18 04:42:07;;;;;;;5.83;4.33;;;;;21.40;101881.00;;;;2064366;28;20458;-72
2024/02/18 04:43:09;;;;;;;6.67;4.03;;;;;21.40;101877.00;;;;2070173;28;20302;-72
2024/02/18 04:44:09;;;;;;;5.10;3.83;;;;;21.40;101879.00;;;;2064609;28;20273;-72
2024/02/18 04:45:10;;;;;;;5.40;4.43;;;;;21.40;101873.00;;;;2058372;28;20221;-72
2024/02/18 04:46:10;;;;;;;4.90;3.90;;;;;21.40;101871.00;;;;2071535;28;20210;-72
2024/02/18 04:47:10;;;;;;;6.57;5.03;;;;;21.40;101872.00;;;;2068681;28;20215;-72
2024/02/18 04:48:11;;;;;;;6.90;4.57;;;;;21.40;101861.00;;;;2070332;28;20218;-72
2024/02/18 04:49:12;;;;;;;6.07;4.37;;;;;21.40;101870.00;;;;2064578;28;20207;-72
2024/02/18 04:50:12;;;;;;;5.67;4.10;;;;;21.40;101869.00;;;;2053832;28;20528;-72
2024/02/18 04:51:12;;;;;;;6.07;4.20;;;;;21.40;101863.00;;;;2063769;28;20521;-72
2024/02/18 04:52:13;;;;;;;7.23;5.20;;;;;21.40;101863.00;;;;2063259;28;20281;-72
2024/02/18 04:53:13;;;;;;;7.07;5.23;;;;;21.40;101861.00;;;;2064518;28;20591;-72
2024/02/18 04:54:14;;;;;;;5.93;4.10;;;;;21.40;101860.00;;;;2063826;28;20655;-72
2024/02/18 04:55:14;;;;;;;6.83;4.10;;;;;21.40;101856.00;;;;2053383;28;20702;-72
2024/02/18 04:56:14;;;;;;;5.23;3.80;;;;;21.40;101856.00;;;;2064644;28;20234;-72